sensor_id;sensor_type;location;lat;lon;timestamp;pressure;altitude;pressure_sealevel;temperature;humidity
7668;BME280;3876;42.204;24.686;2024-02-15T00:00:20;99771.84;;;8.17;82.99
7668;BME280;3876;42.204;24.686;2024-02-15T00:02:48;99774.47;;;8.11;82.92
7668;BME280;3876;42.204;24.686;2024-02-15T00:05:16;99782.16;;;8.10;82.70
7668;BME280;3876;42.204;24.686;2024-02-15T00:07:43;99779.56;;;8.11;83.43
7668;BME280;3876;42.204;24.686;2024-02-15T00:10:13;99758.56;;;7.92;83.63
7668;BME280;3876;42.204;24.686;2024-02-15T00:12:40;99785.69;;;8.01;83.84
7668;BME280;3876;42.204;24.686;2024-02-15T00:15:08;99781.41;;;8.03;83.49
7668;BME280;3876;42.204;24.686;2024-02-15T00:17:36;99784.75;;;8.05;83.19
7668;BME280;3876;42.204;24.686;2024-02-15T00:20:03;99772.97;;;7.95;83.41
7668;BME280;3876;42.204;24.686;2024-02-15T00:22:36;99763.78;;;7.85;83.01
7668;BME280;3876;42.204;24.686;2024-02-15T00:25:03;99784.84;;;7.99;83.31
7668;BME280;3876;42.204;24.686;2024-02-15T00:27:31;99784.03;;;7.97;83.35
7668;BME280;3876;42.204;24.686;2024-02-15T00:30:00;99783.25;;;7.92;83.73
7668;BME280;3876;42.204;24.686;2024-02-15T00:32:26;99758.72;;;7.80;84.04
7668;BME280;3876;42.204;24.686;2024-02-15T00:34:53;99772.25;;;7.85;83.58
7668;BME280;3876;42.204;24.686;2024-02-15T00:37:20;99768.91;;;7.82;83.59
7668;BME280;3876;42.204;24.686;2024-02-15T00:39:48;99773.19;;;7.80;83.83
7668;BME280;3876;42.204;24.686;2024-02-15T00:42:15;99777.31;;;7.88;83.87
7668;BME280;3876;42.204;24.686;2024-02-15T00:44:42;99773.09;;;7.87;83.42
7668;BME280;3876;42.204;24.686;2024-02-15T00:47:09;99780.75;;;7.87;83.39
7668;BME280;3876;42.204;24.686;2024-02-15T00:49:36;99769.78;;;7.81;83.74
7668;BME280;3876;42.204;24.686;2024-02-15T00:52:04;99781.75;;;7.76;84.00
7668;BME280;3876;42.204;24.686;2024-02-15T00:54:31;99773.31;;;7.71;83.65
7668;BME280;3876;42.204;24.686;2024-02-15T00:56:59;99778.44;;;7.71;83.96
7668;BME280;3876;42.204;24.686;2024-02-15T00:59:26;99778.47;;;7.68;84.23
7668;BME280;3876;42.204;24.686;2024-02-15T01:01:52;99771.66;;;7.67;84.41
7668;BME280;3876;42.204;24.686;2024-02-15T01:04:20;99774.22;;;7.68;84.89
7668;BME280;3876;42.204;24.686;2024-02-15T01:06:47;99780.13;;;7.72;84.61
7668;BME280;3876;42.204;24.686;2024-02-15T01:09:14;99779.28;;;7.70;84.85
7668;BME280;3876;42.204;24.686;2024-02-15T01:11:41;99771.66;;;7.67;84.65
7668;BME280;3876;42.204;24.686;2024-02-15T01:14:09;99771.59;;;7.73;84.48
7668;BME280;3876;42.204;24.686;2024-02-15T01:16:36;99769.97;;;7.66;84.74
7668;BME280;3876;42.204;24.686;2024-02-15T01:19:03;99766.59;;;7.64;85.22
7668;BME280;3876;42.204;24.686;2024-02-15T01:21:30;99770.81;;;7.66;84.92
7668;BME280;3876;42.204;24.686;2024-02-15T01:23:58;99766.69;;;7.58;85.08
7668;BME280;3876;42.204;24.686;2024-02-15T01:26:26;99762.44;;;7.58;85.11
7668;BME280;3876;42.204;24.686;2024-02-15T01:28:52;99748.13;;;7.44;85.38
7668;BME280;3876;42.204;24.686;2024-02-15T01:31:21;99761.66;;;7.52;85.41
7668;BME280;3876;42.204;24.686;2024-02-15T01:33:48;99763.41;;;7.47;85.38
7668;BME280;3876;42.204;24.686;2024-02-15T01:36:15;99757.53;;;7.40;85.61
7668;BME280;3876;42.204;24.686;2024-02-15T01:38:42;99773.59;;;7.47;85.05
7668;BME280;3876;42.204;24.686;2024-02-15T01:41:09;99766.88;;;7.43;85.54
7668;BME280;3876;42.204;24.686;2024-02-15T01:43:36;99768.66;;;7.34;85.75
7668;BME280;3876;42.204;24.686;2024-02-15T01:46:08;99780.50;;;7.38;85.23
7668;BME280;3876;42.204;24.686;2024-02-15T01:48:37;99777.16;;;7.33;85.24
7668;BME280;3876;42.204;24.686;2024-02-15T01:51:07;99775.53;;;7.29;85.93
7668;BME280;3876;42.204;24.686;2024-02-15T01:53:34;99780.63;;;7.29;85.54
7668;BME280;3876;42.204;24.686;2024-02-15T01:56:01;99781.47;;;7.30;86.02
7668;BME280;3876;42.204;24.686;2024-02-15T01:58:29;99783.22;;;7.26;85.92
7668;BME280;3876;42.204;24.686;2024-02-15T02:00:58;99787.47;;;7.24;85.60
7668;BME280;3876;42.204;24.686;2024-02-15T02:03:26;99788.34;;;7.22;85.62
7668;BME280;3876;42.204;24.686;2024-02-15T02:05:55;99781.66;;;7.13;86.27
7668;BME280;3876;42.204;24.686;2024-02-15T02:08:22;99789.34;;;7.07;85.92
7668;BME280;3876;42.204;24.686;2024-02-15T02:10:50;99784.28;;;7.01;86.50
7668;BME280;3876;42.204;24.686;2024-02-15T02:13:17;99747.22;;;6.71;86.94
7668;BME280;3876;42.204;24.686;2024-02-15T02:15:44;99787.81;;;6.91;87.01
7668;BME280;3876;42.204;24.686;2024-02-15T02:18:11;99787.84;;;6.85;87.01
7668;BME280;3876;42.204;24.686;2024-02-15T02:20:37;99790.41;;;6.83;87.60
7668;BME280;3876;42.204;24.686;2024-02-15T02:23:07;99787.88;;;6.82;87.38
7668;BME280;3876;42.204;24.686;2024-02-15T02:25:37;99787.00;;;6.86;87.44
7668;BME280;3876;42.204;24.686;2024-02-15T02:28:05;99790.44;;;6.79;87.53
7668;BME280;3876;42.204;24.686;2024-02-15T02:30:32;99789.59;;;6.81;86.98
7668;BME280;3876;42.204;24.686;2024-02-15T02:33:00;99789.63;;;6.77;87.34
7668;BME280;3876;42.204;24.686;2024-02-15T02:35:27;99793.91;;;6.75;87.44
7668;BME280;3876;42.204;24.686;2024-02-15T02:37:55;99796.47;;;6.72;87.68
7668;BME280;3876;42.204;24.686;2024-02-15T02:40:22;99797.38;;;6.65;87.38
7668;BME280;3876;42.204;24.686;2024-02-15T02:42:51;99791.47;;;6.61;87.58
7668;BME280;3876;42.204;24.686;2024-02-15T02:45:18;99793.13;;;6.65;87.35
7668;BME280;3876;42.204;24.686;2024-02-15T02:47:47;99796.53;;;6.64;87.97
7668;BME280;3876;42.204;24.686;2024-02-15T02:50:14;99793.16;;;6.61;88.21
7668;BME280;3876;42.204;24.686;2024-02-15T02:52:41;99767.03;;;6.39;88.15
7668;BME280;3876;42.204;24.686;2024-02-15T02:55:08;99802.56;;;6.50;88.78
7668;BME280;3876;42.204;24.686;2024-02-15T02:57:36;99792.47;;;6.42;89.23
7668;BME280;3876;42.204;24.686;2024-02-15T03:00:06;99797.56;;;6.38;89.01
7668;BME280;3876;42.204;24.686;2024-02-15T03:02:36;99794.22;;;6.32;89.44
7668;BME280;3876;42.204;24.686;2024-02-15T03:05:03;99808.59;;;6.37;89.73
7668;BME280;3876;42.204;24.686;2024-02-15T03:07:32;99805.22;;;6.34;89.55
7668;BME280;3876;42.204;24.686;2024-02-15T03:09:59;99774.78;;;6.19;90.19
7668;BME280;3876;42.204;24.686;2024-02-15T03:12:26;99808.66;;;6.32;90.10
7668;BME280;3876;42.204;24.686;2024-02-15T03:14:54;99804.41;;;6.32;90.31
7668;BME280;3876;42.204;24.686;2024-02-15T03:17:23;99799.31;;;6.32;90.02
7668;BME280;3876;42.204;24.686;2024-02-15T03:19:50;99804.41;;;6.32;89.95
7668;BME280;3876;42.204;24.686;2024-02-15T03:22:16;99800.13;;;6.34;90.33
7668;BME280;3876;42.204;24.686;2024-02-15T03:24:43;99800.97;;;6.38;89.40
7668;BME280;3876;42.204;24.686;2024-02-15T03:27:10;99805.25;;;6.36;89.81
7668;BME280;3876;42.204;24.686;2024-02-15T03:29:37;99801.81;;;6.39;89.96
7668;BME280;3876;42.204;24.686;2024-02-15T03:32:05;99799.25;;;6.40;89.92
7668;BME280;3876;42.204;24.686;2024-02-15T03:34:33;99798.41;;;6.43;89.51
7668;BME280;3876;42.204;24.686;2024-02-15T03:37:00;99785.66;;;6.41;89.71
7668;BME280;3876;42.204;24.686;2024-02-15T03:39:29;99795.81;;;6.49;89.58
7668;BME280;3876;42.204;24.686;2024-02-15T03:41:56;99792.44;;;6.45;89.27
7668;BME280;3876;42.204;24.686;2024-02-15T03:44:24;99794.09;;;6.52;89.30
7668;BME280;3876;42.204;24.686;2024-02-15T03:46:51;99787.38;;;6.42;89.34
7668;BME280;3876;42.204;24.686;2024-02-15T03:49:18;99808.50;;;6.55;88.74
7668;BME280;3876;42.204;24.686;2024-02-15T03:51:48;99801.69;;;6.57;88.81
7668;BME280;3876;42.204;24.686;2024-02-15T03:54:14;99792.34;;;6.53;88.21
7668;BME280;3876;42.204;24.686;2024-02-15T03:56:46;99805.91;;;6.61;88.46
7668;BME280;3876;42.204;24.686;2024-02-15T03:59:18;99810.16;;;6.62;88.26
7668;BME280;3876;42.204;24.686;2024-02-15T04:01:50;99812.66;;;6.65;88.28
7668;BME280;3876;42.204;24.686;2024-02-15T04:04:17;99814.31;;;6.69;88.36
7668;BME280;3876;42.204;24.686;2024-02-15T04:06:47;99811.75;;;6.69;88.00
7668;BME280;3876;42.204;24.686;2024-02-15T04:09:14;99817.72;;;6.69;87.53
7668;BME280;3876;42.204;24.686;2024-02-15T04:11:42;99815.19;;;6.68;87.57
7668;BME280;3876;42.204;24.686;2024-02-15T04:14:09;99811.78;;;6.66;87.82
7668;BME280;3876;42.204;24.686;2024-02-15T04:16:36;99811.75;;;6.69;87.49
7668;BME280;3876;42.204;24.686;2024-02-15T04:19:03;99803.28;;;6.71;87.90
7668;BME280;3876;42.204;24.686;2024-02-15T04:21:29;99810.06;;;6.71;87.33
7668;BME280;3876;42.204;24.686;2024-02-15T04:23:57;99819.41;;;6.70;87.37
7668;BME280;3876;42.204;24.686;2024-02-15T04:26:24;99818.56;;;6.70;87.32
7668;BME280;3876;42.204;24.686;2024-02-15T04:28:52;99818.53;;;6.73;87.72
7668;BME280;3876;42.204;24.686;2024-02-15T04:31:19;99821.94;;;6.69;87.70
7668;BME280;3876;42.204;24.686;2024-02-15T04:33:52;99814.31;;;6.69;87.65
7668;BME280;3876;42.204;24.686;2024-02-15T04:36:19;99811.78;;;6.66;87.41
7668;BME280;3876;42.204;24.686;2024-02-15T04:38:49;99814.34;;;6.63;87.87
7668;BME280;3876;42.204;24.686;2024-02-15T04:41:18;99798.28;;;6.58;87.42
7668;BME280;3876;42.204;24.686;2024-02-15T04:43:48;99817.72;;;6.69;87.26
7668;BME280;3876;42.204;24.686;2024-02-15T04:46:15;99821.94;;;6.70;87.83
7668;BME280;3876;42.204;24.686;2024-02-15T04:48:42;99810.09;;;6.68;86.90
7668;BME280;3876;42.204;24.686;2024-02-15T04:51:09;99814.31;;;6.69;87.13
7668;BME280;3876;42.204;24.686;2024-02-15T04:53:37;99832.94;;;6.77;87.00
7668;BME280;3876;42.204;24.686;2024-02-15T04:56:05;99828.69;;;6.76;86.72
7668;BME280;3876;42.204;24.686;2024-02-15T04:58:38;99832.94;;;6.78;86.69
7668;BME280;3876;42.204;24.686;2024-02-15T05:01:12;99839.75;;;6.78;86.86
7668;BME280;3876;42.204;24.686;2024-02-15T05:03:39;99832.09;;;6.78;86.63
7668;BME280;3876;42.204;24.686;2024-02-15T05:06:06;99838.84;;;6.79;86.54
7668;BME280;3876;42.204;24.686;2024-02-15T05:08:33;99835.44;;;6.83;86.09
7668;BME280;3876;42.204;24.686;2024-02-15T05:11:02;99839.75;;;6.78;86.65
7668;BME280;3876;42.204;24.686;2024-02-15T05:13:30;99832.13;;;6.69;86.39
7668;BME280;3876;42.204;24.686;2024-02-15T05:15:58;99843.09;;;6.83;86.01
7668;BME280;3876;42.204;24.686;2024-02-15T05:18:25;99840.50;;;6.86;85.52
7668;BME280;3876;42.204;24.686;2024-02-15T05:20:52;99841.34;;;6.86;85.53
7668;BME280;3876;42.204;24.686;2024-02-15T05:23:18;99837.97;;;6.88;85.17
7668;BME280;3876;42.204;24.686;2024-02-15T05:25:45;99844.78;;;6.84;85.84
7668;BME280;3876;42.204;24.686;2024-02-15T05:28:12;99844.72;;;6.88;85.14
7668;BME280;3876;42.204;24.686;2024-02-15T05:30:39;99850.69;;;6.88;85.39
7668;BME280;3876;42.204;24.686;2024-02-15T05:33:07;99848.94;;;6.94;85.12
7668;BME280;3876;42.204;24.686;2024-02-15T05:35:35;99854.03;;;6.94;85.38
7668;BME280;3876;42.204;24.686;2024-02-15T05:38:04;99859.13;;;6.97;85.18
7668;BME280;3876;42.204;24.686;2024-02-15T05:40:32;99862.50;;;6.99;85.54
7668;BME280;3876;42.204;24.686;2024-02-15T05:42:59;99859.16;;;6.94;85.38
7668;BME280;3876;42.204;24.686;2024-02-15T05:45:31;99859.13;;;6.97;85.31
7668;BME280;3876;42.204;24.686;2024-02-15T05:47:59;99876.88;;;7.05;85.13
7668;BME280;3876;42.204;24.686;2024-02-15T05:50:28;99880.25;;;7.08;84.60
7668;BME280;3876;42.204;24.686;2024-02-15T05:52:56;99881.09;;;7.10;84.86
7668;BME280;3876;42.204;24.686;2024-02-15T05:55:24;99885.34;;;7.10;84.50
7668;BME280;3876;42.204;24.686;2024-02-15T05:57:52;99876.00;;;7.10;84.49
7668;BME280;3876;42.204;24.686;2024-02-15T06:00:21;99885.31;;;7.11;84.61
7668;BME280;3876;42.204;24.686;2024-02-15T06:02:47;99883.59;;;7.15;84.59
7668;BME280;3876;42.204;24.686;2024-02-15T06:05:15;99897.19;;;7.15;84.85
7668;BME280;3876;42.204;24.686;2024-02-15T06:07:43;99898.00;;;7.17;84.38
7668;BME280;3876;42.204;24.686;2024-02-15T06:10:11;99890.38;;;7.16;85.16
7668;BME280;3876;42.204;24.686;2024-02-15T06:12:39;99892.91;;;7.20;85.01
7668;BME280;3876;42.204;24.686;2024-02-15T06:15:07;99899.69;;;7.21;85.17
7668;BME280;3876;42.204;24.686;2024-02-15T06:17:40;99892.03;;;7.21;84.61
7668;BME280;3876;42.204;24.686;2024-02-15T06:20:11;99896.25;;;7.25;84.58
7668;BME280;3876;42.204;24.686;2024-02-15T06:22:39;99895.41;;;7.25;84.96
7668;BME280;3876;42.204;24.686;2024-02-15T06:25:08;99893.66;;;7.31;85.02
7668;BME280;3876;42.204;24.686;2024-02-15T06:27:35;99901.25;;;7.34;84.51
7668;BME280;3876;42.204;24.686;2024-02-15T06:30:07;99906.38;;;7.34;85.13
7668;BME280;3876;42.204;24.686;2024-02-15T06:32:51;99904.63;;;7.39;85.21
7668;BME280;3876;42.204;24.686;2024-02-15T06:35:36;99903.78;;;7.39;84.47
7668;BME280;3876;42.204;24.686;2024-02-15T06:38:20;99910.56;;;7.42;84.55
7668;BME280;3876;42.204;24.686;2024-02-15T06:41:06;99909.63;;;7.52;85.03
7668;BME280;3876;42.204;24.686;2024-02-15T06:43:32;99910.50;;;7.49;84.57
7668;BME280;3876;42.204;24.686;2024-02-15T06:46:00;99906.22;;;7.53;83.95
7668;BME280;3876;42.204;24.686;2024-02-15T06:48:27;99918.97;;;7.53;83.98
7668;BME280;3876;42.204;24.686;2024-02-15T06:50:53;99921.47;;;7.59;84.05
7668;BME280;3876;42.204;24.686;2024-02-15T06:53:20;99918.81;;;7.66;84.41
7668;BME280;3876;42.204;24.686;2024-02-15T06:55:47;99919.69;;;7.65;83.47
7668;BME280;3876;42.204;24.686;2024-02-15T06:58:16;99924.78;;;7.64;83.81
7668;BME280;3876;42.204;24.686;2024-02-15T07:00:43;99927.25;;;7.74;83.16
7668;BME280;3876;42.204;24.686;2024-02-15T07:03:10;99934.09;;;7.71;83.49
7668;BME280;3876;42.204;24.686;2024-02-15T07:05:37;99928.09;;;7.75;83.05
7668;BME280;3876;42.204;24.686;2024-02-15T07:08:07;99931.44;;;7.80;83.26
7668;BME280;3876;42.204;24.686;2024-02-15T07:10:37;99911.97;;;7.71;83.01
7668;BME280;3876;42.204;24.686;2024-02-15T07:13:04;99927.91;;;7.90;82.99
7668;BME280;3876;42.204;24.686;2024-02-15T07:15:33;99933.00;;;7.93;83.30
7668;BME280;3876;42.204;24.686;2024-02-15T07:18:04;99937.22;;;7.97;82.73
7668;BME280;3876;42.204;24.686;2024-02-15T07:20:31;99903.34;;;7.81;82.45
7668;BME280;3876;42.204;24.686;2024-02-15T07:22:58;99943.91;;;8.06;82.20
7668;BME280;3876;42.204;24.686;2024-02-15T07:25:25;99941.28;;;8.13;81.87
7668;BME280;3876;42.204;24.686;2024-02-15T07:27:52;99937.06;;;8.11;81.75
7668;BME280;3876;42.204;24.686;2024-02-15T07:30:19;99936.09;;;8.19;81.84
7668;BME280;3876;42.204;24.686;2024-02-15T07:32:48;99941.97;;;8.29;81.37
7668;BME280;3876;42.204;24.686;2024-02-15T07:35:14;99942.81;;;8.29;81.72
7668;BME280;3876;42.204;24.686;2024-02-15T07:37:51;99936.81;;;8.33;81.27
7668;BME280;3876;42.204;24.686;2024-02-15T07:40:18;99935.94;;;8.34;81.18
7668;BME280;3876;42.204;24.686;2024-02-15T07:42:47;99947.81;;;8.38;81.11
7668;BME280;3876;42.204;24.686;2024-02-15T07:45:14;99940.03;;;8.49;81.17
7668;BME280;3876;42.204;24.686;2024-02-15T07:47:41;99933.78;;;8.68;81.30
7668;BME280;3876;42.204;24.686;2024-02-15T07:50:09;99936.25;;;8.74;79.18
7668;BME280;3876;42.204;24.686;2024-02-15T07:52:38;99943.72;;;8.88;80.55
7668;BME280;3876;42.204;24.686;2024-02-15T07:55:05;99948.56;;;9.06;79.34
7668;BME280;3876;42.204;24.686;2024-02-15T07:57:34;99944.03;;;9.22;79.13
7668;BME280;3876;42.204;24.686;2024-02-15T08:00:01;99949.84;;;9.31;78.42
7668;BME280;3876;42.204;24.686;2024-02-15T08:02:30;99946.97;;;9.51;78.37
7668;BME280;3876;42.204;24.686;2024-02-15T08:04:57;99947.72;;;9.58;77.12
7668;BME280;3876;42.204;24.686;2024-02-15T08:07:25;99949.94;;;9.76;76.84
7668;BME280;3876;42.204;24.686;2024-02-15T08:09:57;99955.72;;;9.87;76.11
7668;BME280;3876;42.204;24.686;2024-02-15T08:12:23;99949.66;;;9.91;75.62
7668;BME280;3876;42.204;24.686;2024-02-15T08:14:51;99953.75;;;10.01;74.40
7668;BME280;3876;42.204;24.686;2024-02-15T08:17:18;99950.22;;;10.05;74.29
7668;BME280;3876;42.204;24.686;2024-02-15T08:19:45;99936.56;;;10.06;74.20
7668;BME280;3876;42.204;24.686;2024-02-15T08:22:11;99949.91;;;10.23;74.37
7668;BME280;3876;42.204;24.686;2024-02-15T08:24:39;99956.69;;;10.27;73.20
7668;BME280;3876;42.204;24.686;2024-02-15T08:27:06;99956.44;;;10.38;73.62
7668;BME280;3876;42.204;24.686;2024-02-15T08:29:33;99953.69;;;10.47;73.05
7668;BME280;3876;42.204;24.686;2024-02-15T08:32:00;99944.28;;;10.47;73.44
7668;BME280;3876;42.204;24.686;2024-02-15T08:34:27;99955.91;;;10.64;73.12
7668;BME280;3876;42.204;24.686;2024-02-15T08:36:53;99953.09;;;10.74;72.07
7668;BME280;3876;42.204;24.686;2024-02-15T08:39:20;99949.31;;;10.90;72.42
7668;BME280;3876;42.204;24.686;2024-02-15T08:41:50;99942.03;;;11.09;70.65
7668;BME280;3876;42.204;24.686;2024-02-15T08:44:18;99949.50;;;11.18;70.96
7668;BME280;3876;42.204;24.686;2024-02-15T08:46:47;99951.06;;;11.25;69.86
7668;BME280;3876;42.204;24.686;2024-02-15T08:49:14;99950.22;;;11.25;68.70
7668;BME280;3876;42.204;24.686;2024-02-15T08:51:40;99950.03;;;11.32;68.63
7668;BME280;3876;42.204;24.686;2024-02-15T08:54:07;99945.63;;;11.37;70.53
7668;BME280;3876;42.204;24.686;2024-02-15T08:56:35;99945.50;;;11.43;69.17
7668;BME280;3876;42.204;24.686;2024-02-15T08:59:03;99949.69;;;11.46;68.73
7668;BME280;3876;42.204;24.686;2024-02-15T09:01:30;99942.09;;;11.41;68.08
7668;BME280;3876;42.204;24.686;2024-02-15T09:03:57;99942.03;;;11.44;68.50
7668;BME280;3876;42.204;24.686;2024-02-15T09:06:24;99943.31;;;11.60;69.34
7668;BME280;3876;42.204;24.686;2024-02-15T09:08:51;99943.16;;;11.67;68.14
7668;BME280;3876;42.204;24.686;2024-02-15T09:11:18;99937.84;;;11.76;67.84
7668;BME280;3876;42.204;24.686;2024-02-15T09:13:44;99939.50;;;11.77;67.56
7668;BME280;3876;42.204;24.686;2024-02-15T09:16:13;99942.91;;;11.79;67.12
7668;BME280;3876;42.204;24.686;2024-02-15T09:18:40;99938.34;;;11.88;67.44
7668;BME280;3876;42.204;24.686;2024-02-15T09:21:10;99935.56;;;11.96;67.39
7668;BME280;3876;42.204;24.686;2024-02-15T09:23:37;99936.38;;;11.98;66.63
7668;BME280;3876;42.204;24.686;2024-02-15T09:26:04;99940.53;;;12.02;66.09
7668;BME280;3876;42.204;24.686;2024-02-15T09:28:30;99938.47;;;12.15;66.67
7668;BME280;3876;42.204;24.686;2024-02-15T09:30:58;99935.16;;;12.11;66.05
7668;BME280;3876;42.204;24.686;2024-02-15T09:33:28;99931.28;;;12.26;67.07
7668;BME280;3876;42.204;24.686;2024-02-15T09:35:55;99924.34;;;12.29;65.46
7668;BME280;3876;42.204;24.686;2024-02-15T09:38:21;99922.41;;;12.37;65.32
7668;BME280;3876;42.204;24.686;2024-02-15T09:40:50;99925.75;;;12.39;63.61
7668;BME280;3876;42.204;24.686;2024-02-15T09:43:17;99927.56;;;12.37;64.75
7668;BME280;3876;42.204;24.686;2024-02-15T09:45:44;99927.38;;;12.43;64.78
7668;BME280;3876;42.204;24.686;2024-02-15T09:48:11;99913.94;;;12.61;64.79
7668;BME280;3876;42.204;24.686;2024-02-15T09:50:41;99909.97;;;12.51;63.59
7668;BME280;3876;42.204;24.686;2024-02-15T09:53:12;99909.59;;;12.63;64.97
7668;BME280;3876;42.204;24.686;2024-02-15T09:55:40;99905.06;;;12.72;63.84
7668;BME280;3876;42.204;24.686;2024-02-15T09:58:08;99897.94;;;12.80;64.90
7668;BME280;3876;42.204;24.686;2024-02-15T10:00:35;99892.69;;;12.83;63.00
7668;BME280;3876;42.204;24.686;2024-02-15T10:03:02;99888.06;;;12.94;64.37
7668;BME280;3876;42.204;24.686;2024-02-15T10:05:31;99887.97;;;12.97;62.86
7668;BME280;3876;42.204;24.686;2024-02-15T10:08:00;99883.56;;;13.00;64.52
7668;BME280;3876;42.204;24.686;2024-02-15T10:10:27;99886.56;;;13.14;62.84
7668;BME280;3876;42.204;24.686;2024-02-15T10:12:54;99850.13;;;12.99;61.34
7668;BME280;3876;42.204;24.686;2024-02-15T10:15:28;99872.59;;;13.22;62.31
7668;BME280;3876;42.204;24.686;2024-02-15T10:17:57;99869.88;;;13.26;62.21
7668;BME280;3876;42.204;24.686;2024-02-15T10:20:25;99868.06;;;13.28;61.22
7668;BME280;3876;42.204;24.686;2024-02-15T10:22:53;99867.25;;;13.28;61.35
7668;BME280;3876;42.204;24.686;2024-02-15T10:25:22;99865.31;;;13.34;62.05
7668;BME280;3876;42.204;24.686;2024-02-15T10:27:49;99859.22;;;13.37;60.09
7668;BME280;3876;42.204;24.686;2024-02-15T10:30:17;99857.66;;;13.31;60.02
7668;BME280;3876;42.204;24.686;2024-02-15T10:32:45;99858.63;;;13.29;61.37
7668;BME280;3876;42.204;24.686;2024-02-15T10:35:19;99858.25;;;13.39;59.33
7668;BME280;3876;42.204;24.686;2024-02-15T10:37:46;99852.13;;;13.43;60.26
7668;BME280;3876;42.204;24.686;2024-02-15T10:40:17;99846.88;;;13.46;59.70
7668;BME280;3876;42.204;24.686;2024-02-15T10:42:46;99838.16;;;13.50;60.15
7668;BME280;3876;42.204;24.686;2024-02-15T10:45:14;99849.88;;;13.57;60.11
7668;BME280;3876;42.204;24.686;2024-02-15T10:47:44;99845.25;;;13.67;59.38
7668;BME280;3876;42.204;24.686;2024-02-15T10:50:13;99843.13;;;13.78;59.01
7668;BME280;3876;42.204;24.686;2024-02-15T10:52:44;99835.75;;;13.69;58.96
7668;BME280;3876;42.204;24.686;2024-02-15T10:55:20;99836.81;;;13.87;59.52
7668;BME280;3876;42.204;24.686;2024-02-15T10:57:51;99839.78;;;13.76;58.03
7668;BME280;3876;42.204;24.686;2024-02-15T11:00:21;99830.19;;;13.80;58.75
7668;BME280;3876;42.204;24.686;2024-02-15T11:03:00;99824.22;;;13.79;58.10
7668;BME280;3876;42.204;24.686;2024-02-15T11:05:33;99819.50;;;13.90;59.45
7668;BME280;3876;42.204;24.686;2024-02-15T11:08:05;99804.22;;;13.86;59.01
7668;BME280;3876;42.204;24.686;2024-02-15T11:10:34;99803.25;;;14.11;60.51
7668;BME280;3876;42.204;24.686;2024-02-15T11:13:03;99816.75;;;14.18;58.67
7668;BME280;3876;42.204;24.686;2024-02-15T11:15:41;99811.69;;;14.15;58.15
7668;BME280;3876;42.204;24.686;2024-02-15T11:18:11;99811.78;;;14.12;56.79
7668;BME280;3876;42.204;24.686;2024-02-15T11:20:47;99812.94;;;14.05;57.19
7668;BME280;3876;42.204;24.686;2024-02-15T11:23:26;99808.44;;;14.10;58.38
7668;BME280;3876;42.204;24.686;2024-02-15T11:25:53;99801.38;;;14.15;58.96
7668;BME280;3876;42.204;24.686;2024-02-15T11:28:47;99797.72;;;14.20;58.10
7668;BME280;3876;42.204;24.686;2024-02-15T11:31:53;99789.75;;;14.27;58.17
7668;BME280;3876;42.204;24.686;2024-02-15T11:34:43;99793.94;;;14.29;57.18
7668;BME280;3876;42.204;24.686;2024-02-15T11:40:18;99783.63;;;14.29;57.29
7668;BME280;3876;42.204;24.686;2024-02-15T11:42:45;99779.94;;;14.36;58.07
7668;BME280;3876;42.204;24.686;2024-02-15T11:45:15;99772.16;;;14.38;59.28
7668;BME280;3876;42.204;24.686;2024-02-15T11:47:49;99780.25;;;14.50;58.66
7668;BME280;3876;42.204;24.686;2024-02-15T11:50:17;99784.34;;;14.54;58.96
7668;BME280;3876;42.204;24.686;2024-02-15T11:52:46;99778.19;;;14.58;57.24
7668;BME280;3876;42.204;24.686;2024-02-15T11:55:17;99771.78;;;14.47;56.36
7668;BME280;3876;42.204;24.686;2024-02-15T11:57:54;99773.16;;;14.55;56.80
7668;BME280;3876;42.204;24.686;2024-02-15T12:00:31;99771.41;;;14.56;55.97
7668;BME280;3876;42.204;24.686;2024-02-15T12:03:17;99776.31;;;14.62;57.10
7668;BME280;3876;42.204;24.686;2024-02-15T12:06:01;99782.31;;;14.62;55.52
7668;BME280;3876;42.204;24.686;2024-02-15T12:08:45;99772.50;;;14.70;57.05
7668;BME280;3876;42.204;24.686;2024-02-15T12:11:30;99776.53;;;14.78;56.55
7668;BME280;3876;42.204;24.686;2024-02-15T12:14:14;99767.75;;;14.82;56.07
7668;BME280;3876;42.204;24.686;2024-02-15T12:17:01;99775.25;;;14.88;56.76
7668;BME280;3876;42.204;24.686;2024-02-15T12:19:48;99771.66;;;14.92;55.93
7668;BME280;3876;42.204;24.686;2024-02-15T12:22:17;99759.84;;;14.86;56.49
7668;BME280;3876;42.204;24.686;2024-02-15T12:24:53;99769.44;;;14.83;55.72
7668;BME280;3876;42.204;24.686;2024-02-15T12:27:20;99763.38;;;14.84;55.85
7668;BME280;3876;42.204;24.686;2024-02-15T12:29:53;99763.31;;;14.85;55.42
7668;BME280;3876;42.204;24.686;2024-02-15T12:32:21;99766.66;;;14.87;55.16
7668;BME280;3876;42.204;24.686;2024-02-15T12:34:48;99758.72;;;14.92;56.14
7668;BME280;3876;42.204;24.686;2024-02-15T12:37:18;99755.69;;;14.82;55.01
7668;BME280;3876;42.204;24.686;2024-02-15T12:39:47;99756.72;;;14.78;54.57
7668;BME280;3876;42.204;24.686;2024-02-15T12:42:14;99736.66;;;14.64;53.52
7668;BME280;3876;42.204;24.686;2024-02-15T12:44:43;99752.53;;;14.76;54.58
7668;BME280;3876;42.204;24.686;2024-02-15T12:47:19;99746.09;;;14.86;55.52
7668;BME280;3876;42.204;24.686;2024-02-15T12:49:49;99753.31;;;14.98;55.59
7668;BME280;3876;42.204;24.686;2024-02-15T12:52:36;99756.78;;;14.97;56.24
7668;BME280;3876;42.204;24.686;2024-02-15T12:55:11;99755.13;;;14.96;54.09
7668;BME280;3876;42.204;24.686;2024-02-15T12:57:42;99732.47;;;14.82;54.63
7668;BME280;3876;42.204;24.686;2024-02-15T13:00:11;99750.06;;;14.93;53.58
7668;BME280;3876;42.204;24.686;2024-02-15T13:02:43;99726.34;;;14.85;53.23
7668;BME280;3876;42.204;24.686;2024-02-15T13:05:11;99754.19;;;14.97;52.81
7668;BME280;3876;42.204;24.686;2024-02-15T13:07:39;99736.78;;;15.02;54.29
7668;BME280;3876;42.204;24.686;2024-02-15T13:10:07;99742.84;;;15.01;53.40
7668;BME280;3876;42.204;24.686;2024-02-15T13:12:34;99748.16;;;14.98;52.45
7668;BME280;3876;42.204;24.686;2024-02-15T13:15:03;99726.06;;;14.91;53.98
7668;BME280;3876;42.204;24.686;2024-02-15T13:17:30;99745.81;;;15.12;53.74
7668;BME280;3876;42.204;24.686;2024-02-15T13:19:57;99736.84;;;15.00;52.50
7668;BME280;3876;42.204;24.686;2024-02-15T13:22:32;99739.75;;;14.93;52.18
7668;BME280;3876;42.204;24.686;2024-02-15T13:25:00;99739.88;;;14.90;52.90
7668;BME280;3876;42.204;24.686;2024-02-15T13:27:28;99740.78;;;14.89;53.92
7668;BME280;3876;42.204;24.686;2024-02-15T13:29:56;99734.72;;;14.90;52.69